WetterOnline ( https://www.wetteronline.de )

Wetter aktuell Hildesheim

Aktuelles Wetter: Alfeld (148m)

6-stündlich | Neueste Meldungen
Ortszeit Temperatur Wetter
Do, 18.04. 20:00 9.6° C bewölkt
Do, 18.04. 14:00 8.9° C bewölkt
Do, 18.04. 8:00 3.4° C bewölkt
Do, 18.04. 2:00 3.4° C wolkig
Mi, 17.04. 20:00 5.3° C bewölkt
Mi, 17.04. 14:00 6.7° C bewölkt
Mi, 17.04. 8:00 4.9° C bewölkt
Mi, 17.04. 2:00 5.2° C bewölkt
Ortszeit Temperatur Wetter
Do, 18.04. 21:00 8.8° C bewölkt
Do, 18.04. 20:50 8.8° C bewölkt
Do, 18.04. 20:40 8.7° C bewölkt
Do, 18.04. 20:30 9.1° C bewölkt
Do, 18.04. 20:20 9.1° C bewölkt
Do, 18.04. 20:10 9.3° C bewölkt
Do, 18.04. 20:00 9.6° C bewölkt
Do, 18.04. 19:30 9.7° C wolkig
Do, 18.04. 19:00 10.3° C wolkig
Do, 18.04. 18:30 10.5° C bewölkt
Do, 18.04. 18:00 10.8° C wolkig
Ortszeit Relative Feuchte Sichtweite
Do, 18.04. 20:00 51% 60 km
Do, 18.04. 14:00 61% 65 km
Do, 18.04. 8:00 96% 9 km
Do, 18.04. 2:00 98% 9 km
Mi, 17.04. 20:00 88% 45 km
Mi, 17.04. 14:00 81% 40 km
Mi, 17.04. 8:00 86% 35 km
Mi, 17.04. 2:00 97% 7 km
Ortszeit Relative Feuchte Sichtweite
Do, 18.04. 21:00 57% >70 km
Do, 18.04. 20:50 57% -
Do, 18.04. 20:40 58% -
Do, 18.04. 20:30 54% >70 km
Do, 18.04. 20:20 54% -
Do, 18.04. 20:10 54% -
Do, 18.04. 20:00 51% 60 km
Do, 18.04. 19:30 52% 60 km
Do, 18.04. 19:00 49% 60 km
Do, 18.04. 18:30 52% >70 km
Do, 18.04. 18:00 52% >70 km
Ortszeit Niederschlagsmenge Niederschlagsart
Do, 18.04. 20:00 0.1 l/m2 in 12 Std. Regen
Do, 18.04. 14:00 0.1 l/m2 in 6 Std. Regen
Do, 18.04. 8:00 0.1 l/m2 in 12 Std. -
Do, 18.04. 2:00 0.1 l/m2 in 6 Std. Sprühregen
Mi, 17.04. 20:00 7 l/m2 in 12 Std. Regen
Mi, 17.04. 14:00 0.5 l/m2 in 6 Std. Regen
Mi, 17.04. 8:00 2 l/m2 in 12 Std. Regen
Mi, 17.04. 2:00 1 l/m2 in 6 Std. Regen
Ortszeit Niederschlagsmenge Niederschlagsart
Do, 18.04. 21:00 0.0 l/m2 in 1 Std. -
Do, 18.04. 20:50 keine Meldung -
Do, 18.04. 20:40 keine Meldung -
Do, 18.04. 20:30 0.0 l/m2 in 30 Min -
Do, 18.04. 20:20 keine Meldung -
Do, 18.04. 20:10 keine Meldung -
Do, 18.04. 20:00 0.0 l/m2 in 1 Std. Regen
Do, 18.04. 19:30 0.0 l/m2 in 30 Min -
Do, 18.04. 19:00 <0.05 l/m2 in 1 Std. Regen
Do, 18.04. 18:30 <0.05 l/m2 in 30 Min Schneeregen
Do, 18.04. 18:00 0.0 l/m2 in 1 Std. -
Ortszeit Stärke Spitze Richtung
km/h Bft. km/h Grad Sektor
Do, 18.04. 20:00 13 3 35 290° W
Do, 18.04. 14:00 11 2 24 320° NW
Do, 18.04. 8:00 4 1 11 340° N
Do, 18.04. 2:00 4 1 29 120° SO
Mi, 17.04. 20:00 9 2 22 320° NW
Mi, 17.04. 14:00 14 3 29 140° SO
Mi, 17.04. 8:00 11 2 22 280° W
Mi, 17.04. 2:00 0 0 29 - -
Ortszeit Stärke Spitze Richtung
km/h Bft. km/h Grad Sektor
Do, 18.04. 21:00 7 2 22 300° NW
Do, 18.04. 20:50 7 2 - 300° NW
Do, 18.04. 20:40 9 2 - 310° NW
Do, 18.04. 20:30 9 2 22 280° W
Do, 18.04. 20:20 9 2 - 280° W
Do, 18.04. 20:10 9 2 - 280° W
Do, 18.04. 20:00 13 3 30 290° W
Do, 18.04. 19:30 11 2 22 300° NW
Do, 18.04. 19:00 14 3 36 280° W
Do, 18.04. 18:30 17 3 35 300° NW
Do, 18.04. 18:00 19 3 35 290° W
Ortszeit Untergrenze Bedeckung Gattung
total tief tief mittel hoch
Do, 18.04. 20:00 2100 m 7/8 7/8 - - -
Do, 18.04. 14:00 1110 m 7/8 7/8 - - -
Do, 18.04. 8:00 1380 m 7/8 7/8 - - -
Do, 18.04. 2:00 900 m 6/8 4/8 - - -
Mi, 17.04. 20:00 420 m 7/8 7/8 - - -
Mi, 17.04. 14:00 1320 m 7/8 7/8 - - -
Mi, 17.04. 8:00 480 m 7/8 7/8 - - -
Mi, 17.04. 2:00 480 m 7/8 7/8 - - -
Ortszeit Bedeckungsgrad in Achtel und Wolkenuntergrenze
Do, 18.04. 21:00 6(2100m) 8(6900m) 8(8700m)
Do, 18.04. 20:50 6(2100m) 8(6900m) 8(8700m)
Do, 18.04. 20:40 7
Do, 18.04. 20:30 7(2100m) 7(7200m)
Do, 18.04. 20:20 7(2100m) 7(7200m)
Do, 18.04. 20:10 7
Do, 18.04. 20:00 7(2100m) 7(6300m) 7(7200m)
Do, 18.04. 19:30 5(2100m) 7(5700m) 7(8400m)
Do, 18.04. 19:00 3(2100m) 7(6600m) 7(7800m)
Do, 18.04. 18:30 7(2100m) 7(6000m)
Do, 18.04. 18:00 1(1290m) 5(2100m) 7(8400m)
Ortszeit Luftdruck NN (hPa) Tendenz (hPa in 3 Std.)
Do, 18.04. 20:00 1017 0,0
Do, 18.04. 14:00 1018 + 0,3
Do, 18.04. 8:00 1016 + 1,9
Do, 18.04. 2:00 1013 + 1,1
Mi, 17.04. 20:00 1011 + 0,5
Mi, 17.04. 14:00 1009 + 0,1
Mi, 17.04. 8:00 1009 + 1,0
Mi, 17.04. 2:00 1008 + 1,4
Ortszeit Luftdruck NN (hPa) Tendenz (hPa in 3 Std.)
Do, 18.04. 21:00 1017 + 0,1
Do, 18.04. 20:50 1017 keine Meldung
Do, 18.04. 20:40 1017 keine Meldung
Do, 18.04. 20:30 1017 + 0,1
Do, 18.04. 20:20 1017 keine Meldung
Do, 18.04. 20:10 1017 keine Meldung
Do, 18.04. 20:00 1017 0,0
Do, 18.04. 19:30 1017 - 0,1
Do, 18.04. 19:00 1017 - 0,4
Do, 18.04. 18:30 1017 - 0,4
Do, 18.04. 18:00 1017 - 0,7
Ortszeit Schneehöhe (cm)
Do, 18.04. 20:00 0
Do, 18.04. 14:00 0
Do, 18.04. 8:00 0
Do, 18.04. 2:00 0
Mi, 17.04. 20:00 0
Mi, 17.04. 14:00 0
Mi, 17.04. 8:00 0
Mi, 17.04. 2:00 0
Ortszeit Schneehöhe (cm)
Do, 18.04. 21:00 0
Do, 18.04. 20:50 0
Do, 18.04. 20:40 -
Do, 18.04. 20:30 0
Do, 18.04. 20:20 0
Do, 18.04. 20:10 -
Do, 18.04. 20:00 0
Do, 18.04. 19:30 0
Do, 18.04. 19:00 0
Do, 18.04. 18:30 0
Do, 18.04. 18:00 0
Link zu dieser Seite / Seite empfehlen

Das Wetter in ...